sensor_id;sensor_type;location;lat;lon;timestamp;P1;durP1;ratioP1;P2;durP2;ratioP2
62419;SDS011;48460;51.616;5.426;2023-03-02T00:02:19;10.95;;;5.70;;
62419;SDS011;48460;51.616;5.426;2023-03-02T00:05:20;13.15;;;5.90;;
62419;SDS011;48460;51.616;5.426;2023-03-02T00:11:05;13.13;;;5.93;;
62419;SDS011;48460;51.616;5.426;2023-03-02T00:13:31;13.02;;;6.00;;
62419;SDS011;48460;51.616;5.426;2023-03-02T00:19:41;12.82;;;6.10;;
62419;SDS011;48460;51.616;5.426;2023-03-02T00:22:13;9.23;;;5.43;;
62419;SDS011;48460;51.616;5.426;2023-03-02T00:24:57;12.07;;;6.40;;
62419;SDS011;48460;51.616;5.426;2023-03-02T00:27:25;12.43;;;6.00;;
62419;SDS011;48460;51.616;5.426;2023-03-02T00:29:56;13.75;;;6.00;;
62419;SDS011;48460;51.616;5.426;2023-03-02T00:32:46;10.77;;;5.63;;
62419;SDS011;48460;51.616;5.426;2023-03-02T00:35:17;13.95;;;6.18;;
62419;SDS011;48460;51.616;5.426;2023-03-02T00:38:07;11.73;;;5.75;;
62419;SDS011;48460;51.616;5.426;2023-03-02T00:40:44;13.27;;;6.07;;
62419;SDS011;48460;51.616;5.426;2023-03-02T00:43:30;15.48;;;6.13;;
62419;SDS011;48460;51.616;5.426;2023-03-02T00:46:06;12.38;;;6.65;;
62419;SDS011;48460;51.616;5.426;2023-03-02T00:48:54;15.57;;;6.38;;
62419;SDS011;48460;51.616;5.426;2023-03-02T00:51:25;12.38;;;6.63;;
62419;SDS011;48460;51.616;5.426;2023-03-02T00:53:56;14.20;;;6.45;;
62419;SDS011;48460;51.616;5.426;2023-03-02T00:56:44;14.05;;;6.25;;
62419;SDS011;48460;51.616;5.426;2023-03-02T00:59:25;13.00;;;6.18;;
62419;SDS011;48460;51.616;5.426;2023-03-02T01:02:01;13.18;;;6.55;;
62419;SDS011;48460;51.616;5.426;2023-03-02T01:04:38;12.50;;;6.07;;
62419;SDS011;48460;51.616;5.426;2023-03-02T01:07:19;12.68;;;6.05;;
62419;SDS011;48460;51.616;5.426;2023-03-02T01:09:56;11.07;;;6.20;;
62419;SDS011;48460;51.616;5.426;2023-03-02T01:12:26;11.68;;;6.28;;
62419;SDS011;48460;51.616;5.426;2023-03-02T01:14:57;13.07;;;5.65;;
62419;SDS011;48460;51.616;5.426;2023-03-02T01:17:31;14.20;;;7.00;;
62419;SDS011;48460;51.616;5.426;2023-03-02T01:23:50;12.05;;;6.20;;
62419;SDS011;48460;51.616;5.426;2023-03-02T01:42:29;13.25;;;6.85;;
62419;SDS011;48460;51.616;5.426;2023-03-02T01:48:19;16.40;;;7.18;;
62419;SDS011;48460;51.616;5.426;2023-03-02T01:54:27;17.30;;;7.93;;
62419;SDS011;48460;51.616;5.426;2023-03-02T01:57:28;16.63;;;8.30;;
62419;SDS011;48460;51.616;5.426;2023-03-02T02:00:35;18.77;;;8.35;;
62419;SDS011;48460;51.616;5.426;2023-03-02T02:03:49;19.42;;;9.55;;
62419;SDS011;48460;51.616;5.426;2023-03-02T02:09:50;21.20;;;10.40;;
62419;SDS011;48460;51.616;5.426;2023-03-02T02:12:21;23.63;;;10.30;;
62419;SDS011;48460;51.616;5.426;2023-03-02T02:17:50;30.95;;;12.32;;
62419;SDS011;48460;51.616;5.426;2023-03-02T02:20:59;28.08;;;12.77;;
62419;SDS011;48460;51.616;5.426;2023-03-02T02:29:03;33.45;;;15.27;;
62419;SDS011;48460;51.616;5.426;2023-03-02T02:31:39;31.55;;;14.77;;
62419;SDS011;48460;51.616;5.426;2023-03-02T02:41:23;34.17;;;15.43;;
62419;SDS011;48460;51.616;5.426;2023-03-02T02:47:35;41.08;;;17.35;;
62419;SDS011;48460;51.616;5.426;2023-03-02T02:50:42;39.47;;;17.40;;
62419;SDS011;48460;51.616;5.426;2023-03-02T02:56:53;31.27;;;14.88;;
62419;SDS011;48460;51.616;5.426;2023-03-02T03:02:49;42.30;;;17.85;;
62419;SDS011;48460;51.616;5.426;2023-03-02T03:05:32;45.10;;;19.63;;
62419;SDS011;48460;51.616;5.426;2023-03-02T03:08:38;47.13;;;19.58;;
62419;SDS011;48460;51.616;5.426;2023-03-02T03:24:16;51.00;;;21.33;;
62419;SDS011;48460;51.616;5.426;2023-03-02T03:44:59;49.65;;;21.27;;
62419;SDS011;48460;51.616;5.426;2023-03-02T03:47:45;53.93;;;21.63;;
62419;SDS011;48460;51.616;5.426;2023-03-02T03:50:25;54.00;;;22.65;;
62419;SDS011;48460;51.616;5.426;2023-03-02T03:53:11;53.05;;;21.98;;
62419;SDS011;48460;51.616;5.426;2023-03-02T03:55:52;49.30;;;19.38;;
62419;SDS011;48460;51.616;5.426;2023-03-02T03:58:42;54.50;;;21.67;;
62419;SDS011;48460;51.616;5.426;2023-03-02T04:07:52;51.63;;;21.48;;
62419;SDS011;48460;51.616;5.426;2023-03-02T04:10:31;49.88;;;21.38;;
62419;SDS011;48460;51.616;5.426;2023-03-02T04:13:13;38.10;;;16.40;;
62419;SDS011;48460;51.616;5.426;2023-03-02T04:15:41;38.95;;;16.60;;
62419;SDS011;48460;51.616;5.426;2023-03-02T04:18:24;51.20;;;21.45;;
62419;SDS011;48460;51.616;5.426;2023-03-02T04:21:05;52.50;;;20.77;;
62419;SDS011;48460;51.616;5.426;2023-03-02T04:23:51;48.33;;;19.20;;
62419;SDS011;48460;51.616;5.426;2023-03-02T04:26:42;47.97;;;20.50;;
62419;SDS011;48460;51.616;5.426;2023-03-02T04:29:28;53.17;;;21.23;;
62419;SDS011;48460;51.616;5.426;2023-03-02T04:32:11;49.15;;;20.48;;
62419;SDS011;48460;51.616;5.426;2023-03-02T04:37:52;52.70;;;20.40;;
62419;SDS011;48460;51.616;5.426;2023-03-02T04:40:29;50.67;;;19.85;;
62419;SDS011;48460;51.616;5.426;2023-03-02T04:46:14;55.88;;;20.40;;
62419;SDS011;48460;51.616;5.426;2023-03-02T04:48:49;50.63;;;20.20;;
62419;SDS011;48460;51.616;5.426;2023-03-02T04:51:54;52.08;;;20.23;;
62419;SDS011;48460;51.616;5.426;2023-03-02T04:54:42;51.80;;;20.40;;
62419;SDS011;48460;51.616;5.426;2023-03-02T04:57:31;57.83;;;21.83;;
62419;SDS011;48460;51.616;5.426;2023-03-02T05:00:09;50.80;;;19.75;;
62419;SDS011;48460;51.616;5.426;2023-03-02T05:02:51;44.78;;;17.50;;
62419;SDS011;48460;51.616;5.426;2023-03-02T05:05:27;55.35;;;21.60;;
62419;SDS011;48460;51.616;5.426;2023-03-02T05:08:03;49.13;;;19.77;;
62419;SDS011;48460;51.616;5.426;2023-03-02T05:10:42;51.25;;;21.02;;
62419;SDS011;48460;51.616;5.426;2023-03-02T05:13:36;52.10;;;19.50;;
62419;SDS011;48460;51.616;5.426;2023-03-02T05:16:23;54.60;;;20.60;;
62419;SDS011;48460;51.616;5.426;2023-03-02T05:19:02;55.17;;;20.57;;
62419;SDS011;48460;51.616;5.426;2023-03-02T05:22:04;51.85;;;17.60;;
62419;SDS011;48460;51.616;5.426;2023-03-02T05:24:45;58.53;;;22.15;;
62419;SDS011;48460;51.616;5.426;2023-03-02T05:27:21;57.45;;;21.92;;
62419;SDS011;48460;51.616;5.426;2023-03-02T05:30:06;57.72;;;21.83;;
62419;SDS011;48460;51.616;5.426;2023-03-02T05:32:39;56.80;;;21.30;;
62419;SDS011;48460;51.616;5.426;2023-03-02T05:35:13;53.75;;;21.75;;
62419;SDS011;48460;51.616;5.426;2023-03-02T05:38:16;55.90;;;20.52;;
62419;SDS011;48460;51.616;5.426;2023-03-02T05:40:51;54.15;;;20.15;;
62419;SDS011;48460;51.616;5.426;2023-03-02T05:43:29;57.60;;;21.73;;
62419;SDS011;48460;51.616;5.426;2023-03-02T05:45:57;61.03;;;21.73;;
62419;SDS011;48460;51.616;5.426;2023-03-02T05:48:30;58.55;;;21.15;;
62419;SDS011;48460;51.616;5.426;2023-03-02T05:51:14;61.70;;;22.23;;
62419;SDS011;48460;51.616;5.426;2023-03-02T05:53:40;55.85;;;20.27;;
62419;SDS011;48460;51.616;5.426;2023-03-02T05:56:10;59.88;;;22.08;;
62419;SDS011;48460;51.616;5.426;2023-03-02T05:58:54;58.45;;;22.20;;
62419;SDS011;48460;51.616;5.426;2023-03-02T06:01:23;55.38;;;20.88;;
62419;SDS011;48460;51.616;5.426;2023-03-02T06:03:52;61.85;;;22.00;;
62419;SDS011;48460;51.616;5.426;2023-03-02T06:06:21;58.90;;;21.67;;
62419;SDS011;48460;51.616;5.426;2023-03-02T06:08:48;58.65;;;22.35;;
62419;SDS011;48460;51.616;5.426;2023-03-02T06:11:14;61.25;;;20.63;;
62419;SDS011;48460;51.616;5.426;2023-03-02T06:13:44;59.85;;;21.30;;
62419;SDS011;48460;51.616;5.426;2023-03-02T06:16:10;62.75;;;21.92;;
62419;SDS011;48460;51.616;5.426;2023-03-02T06:18:54;56.08;;;21.45;;
62419;SDS011;48460;51.616;5.426;2023-03-02T06:21:20;57.70;;;20.73;;
62419;SDS011;48460;51.616;5.426;2023-03-02T06:23:47;56.38;;;20.80;;
62419;SDS011;48460;51.616;5.426;2023-03-02T08:39:55;49.70;;;17.88;;
62419;SDS011;48460;51.616;5.426;2023-03-02T08:43:02;43.80;;;17.35;;
62419;SDS011;48460;51.616;5.426;2023-03-02T09:04:23;38.28;;;16.85;;
62419;SDS011;48460;51.616;5.426;2023-03-02T09:06:49;36.17;;;15.35;;
62419;SDS011;48460;51.616;5.426;2023-03-02T09:09:17;38.22;;;17.23;;
62419;SDS011;48460;51.616;5.426;2023-03-02T09:11:47;38.33;;;16.23;;
62419;SDS011;48460;51.616;5.426;2023-03-02T09:14:22;39.08;;;16.48;;
62419;SDS011;48460;51.616;5.426;2023-03-02T09:20:05;34.50;;;15.45;;
62419;SDS011;48460;51.616;5.426;2023-03-02T09:22:34;36.45;;;16.23;;
62419;SDS011;48460;51.616;5.426;2023-03-02T09:25:28;31.00;;;14.63;;
62419;SDS011;48460;51.616;5.426;2023-03-02T09:27:56;34.95;;;14.88;;
62419;SDS011;48460;51.616;5.426;2023-03-02T09:30:23;39.00;;;16.10;;
62419;SDS011;48460;51.616;5.426;2023-03-02T09:32:51;32.42;;;14.13;;
62419;SDS011;48460;51.616;5.426;2023-03-02T09:35:19;34.95;;;15.23;;
62419;SDS011;48460;51.616;5.426;2023-03-02T09:37:45;32.72;;;14.70;;
62419;SDS011;48460;51.616;5.426;2023-03-02T09:40:18;29.92;;;13.73;;
62419;SDS011;48460;51.616;5.426;2023-03-02T09:54:00;27.67;;;12.57;;
62419;SDS011;48460;51.616;5.426;2023-03-02T09:56:42;25.05;;;12.32;;
62419;SDS011;48460;51.616;5.426;2023-03-02T10:02:19;25.45;;;11.73;;
62419;SDS011;48460;51.616;5.426;2023-03-02T10:04:52;26.17;;;12.02;;
62419;SDS011;48460;51.616;5.426;2023-03-02T10:07:31;28.73;;;12.95;;
62419;SDS011;48460;51.616;5.426;2023-03-02T10:10:10;22.23;;;10.20;;
62419;SDS011;48460;51.616;5.426;2023-03-02T10:18:44;22.38;;;10.45;;
62419;SDS011;48460;51.616;5.426;2023-03-02T10:34:52;22.27;;;10.40;;
62419;SDS011;48460;51.616;5.426;2023-03-02T10:37:23;21.15;;;11.30;;
62419;SDS011;48460;51.616;5.426;2023-03-02T10:39:59;22.88;;;9.75;;
62419;SDS011;48460;51.616;5.426;2023-03-02T10:42:28;20.10;;;9.33;;
62419;SDS011;48460;51.616;5.426;2023-03-02T10:48:04;17.52;;;9.20;;
62419;SDS011;48460;51.616;5.426;2023-03-02T10:50:36;21.15;;;10.18;;
62419;SDS011;48460;51.616;5.426;2023-03-02T10:53:17;21.85;;;10.38;;
62419;SDS011;48460;51.616;5.426;2023-03-02T10:55:46;19.15;;;10.25;;
62419;SDS011;48460;51.616;5.426;2023-03-02T10:58:31;24.98;;;12.40;;
62419;SDS011;48460;51.616;5.426;2023-03-02T11:01:03;21.65;;;10.55;;
62419;SDS011;48460;51.616;5.426;2023-03-02T11:03:57;21.50;;;10.55;;
62419;SDS011;48460;51.616;5.426;2023-03-02T11:06:27;17.60;;;8.55;;
62419;SDS011;48460;51.616;5.426;2023-03-02T11:09:12;23.50;;;9.68;;
62419;SDS011;48460;51.616;5.426;2023-03-02T11:11:47;22.67;;;10.73;;
62419;SDS011;48460;51.616;5.426;2023-03-02T11:14:17;21.73;;;10.43;;
62419;SDS011;48460;51.616;5.426;2023-03-02T11:16:52;22.83;;;11.23;;
62419;SDS011;48460;51.616;5.426;2023-03-02T11:19:39;21.23;;;10.73;;
62419;SDS011;48460;51.616;5.426;2023-03-02T11:22:20;27.35;;;11.63;;
62419;SDS011;48460;51.616;5.426;2023-03-02T11:25:04;23.33;;;11.20;;
62419;SDS011;48460;51.616;5.426;2023-03-02T11:27:38;23.88;;;11.57;;
62419;SDS011;48460;51.616;5.426;2023-03-02T11:30:11;22.83;;;10.77;;
62419;SDS011;48460;51.616;5.426;2023-03-02T11:33:06;23.77;;;10.73;;
62419;SDS011;48460;51.616;5.426;2023-03-02T11:35:53;17.35;;;9.63;;
62419;SDS011;48460;51.616;5.426;2023-03-02T11:44:17;20.45;;;11.30;;
62419;SDS011;48460;51.616;5.426;2023-03-02T11:46:46;20.58;;;9.88;;
62419;SDS011;48460;51.616;5.426;2023-03-02T11:49:17;18.30;;;10.38;;
62419;SDS011;48460;51.616;5.426;2023-03-02T11:51:57;21.73;;;10.93;;
62419;SDS011;48460;51.616;5.426;2023-03-02T11:57:02;20.40;;;10.20;;
62419;SDS011;48460;51.616;5.426;2023-03-02T11:59:38;21.63;;;10.55;;
62419;SDS011;48460;51.616;5.426;2023-03-02T12:02:12;22.65;;;10.27;;
62419;SDS011;48460;51.616;5.426;2023-03-02T12:04:41;22.33;;;11.32;;
62419;SDS011;48460;51.616;5.426;2023-03-02T12:07:16;22.73;;;10.15;;
62419;SDS011;48460;51.616;5.426;2023-03-02T12:09:57;21.00;;;9.45;;
62419;SDS011;48460;51.616;5.426;2023-03-02T12:13:05;19.45;;;10.65;;
62419;SDS011;48460;51.616;5.426;2023-03-02T12:15:40;22.17;;;9.93;;
62419;SDS011;48460;51.616;5.426;2023-03-02T12:24:25;20.45;;;9.50;;
62419;SDS011;48460;51.616;5.426;2023-03-02T12:32:42;21.00;;;10.32;;
62419;SDS011;48460;51.616;5.426;2023-03-02T12:38:32;16.65;;;8.45;;
62419;SDS011;48460;51.616;5.426;2023-03-02T13:13:01;14.88;;;8.55;;
62419;SDS011;48460;51.616;5.426;2023-03-02T13:29:19;17.15;;;9.13;;
62419;SDS011;48460;51.616;5.426;2023-03-02T13:31:49;16.50;;;9.20;;
62419;SDS011;48460;51.616;5.426;2023-03-02T13:44:31;16.70;;;8.63;;
62419;SDS011;48460;51.616;5.426;2023-03-02T13:47:02;14.95;;;8.25;;
62419;SDS011;48460;51.616;5.426;2023-03-02T13:50:04;14.07;;;7.95;;
62419;SDS011;48460;51.616;5.426;2023-03-02T13:52:53;16.80;;;9.15;;
62419;SDS011;48460;51.616;5.426;2023-03-02T13:55:26;16.92;;;8.23;;
62419;SDS011;48460;51.616;5.426;2023-03-02T13:57:57;16.88;;;8.68;;
62419;SDS011;48460;51.616;5.426;2023-03-02T14:03:25;19.02;;;9.50;;
62419;SDS011;48460;51.616;5.426;2023-03-02T14:05:55;16.02;;;9.43;;
62419;SDS011;48460;51.616;5.426;2023-03-02T14:08:27;17.35;;;9.40;;
62419;SDS011;48460;51.616;5.426;2023-03-02T14:10:57;14.52;;;8.48;;
62419;SDS011;48460;51.616;5.426;2023-03-02T14:13:30;16.10;;;8.70;;
62419;SDS011;48460;51.616;5.426;2023-03-02T14:16:13;14.70;;;8.73;;
62419;SDS011;48460;51.616;5.426;2023-03-02T14:18:44;15.25;;;8.95;;
62419;SDS011;48460;51.616;5.426;2023-03-02T14:21:19;17.90;;;8.75;;
62419;SDS011;48460;51.616;5.426;2023-03-02T14:23:51;16.50;;;8.30;;
62419;SDS011;48460;51.616;5.426;2023-03-02T14:29:30;14.00;;;7.93;;
62419;SDS011;48460;51.616;5.426;2023-03-02T14:32:08;15.55;;;9.15;;
62419;SDS011;48460;51.616;5.426;2023-03-02T14:34:38;16.27;;;8.95;;
62419;SDS011;48460;51.616;5.426;2023-03-02T14:37:12;15.55;;;8.90;;
62419;SDS011;48460;51.616;5.426;2023-03-02T14:39:42;19.75;;;9.75;;
62419;SDS011;48460;51.616;5.426;2023-03-02T14:42:30;15.85;;;9.30;;
62419;SDS011;48460;51.616;5.426;2023-03-02T14:45:03;16.23;;;9.65;;
62419;SDS011;48460;51.616;5.426;2023-03-02T14:47:38;14.02;;;8.18;;
62419;SDS011;48460;51.616;5.426;2023-03-02T14:50:07;19.27;;;9.40;;
62419;SDS011;48460;51.616;5.426;2023-03-02T14:52:54;18.67;;;9.85;;
62419;SDS011;48460;51.616;5.426;2023-03-02T14:55:48;15.73;;;9.60;;
62419;SDS011;48460;51.616;5.426;2023-03-02T15:44:22;18.75;;;10.07;;
62419;SDS011;48460;51.616;5.426;2023-03-02T15:46:57;17.10;;;8.85;;
62419;SDS011;48460;51.616;5.426;2023-03-02T16:14:06;13.25;;;7.70;;
62419;SDS011;48460;51.616;5.426;2023-03-02T16:16:32;16.00;;;8.70;;
62419;SDS011;48460;51.616;5.426;2023-03-02T16:26:31;14.30;;;7.97;;
62419;SDS011;48460;51.616;5.426;2023-03-02T16:29:19;14.65;;;8.48;;
62419;SDS011;48460;51.616;5.426;2023-03-02T16:31:52;15.60;;;8.50;;
62419;SDS011;48460;51.616;5.426;2023-03-02T16:48:09;17.45;;;8.50;;
62419;SDS011;48460;51.616;5.426;2023-03-02T16:54:20;15.80;;;8.48;;
62419;SDS011;48460;51.616;5.426;2023-03-02T16:56:51;18.52;;;8.80;;
62419;SDS011;48460;51.616;5.426;2023-03-02T17:02:24;20.45;;;9.48;;
62419;SDS011;48460;51.616;5.426;2023-03-02T17:04:53;19.58;;;9.43;;
62419;SDS011;48460;51.616;5.426;2023-03-02T17:11:30;18.83;;;8.93;;
62419;SDS011;48460;51.616;5.426;2023-03-02T17:14:00;17.03;;;9.17;;
62419;SDS011;48460;51.616;5.426;2023-03-02T17:16:38;19.17;;;9.38;;
62419;SDS011;48460;51.616;5.426;2023-03-02T17:19:08;15.60;;;9.05;;
62419;SDS011;48460;51.616;5.426;2023-03-02T17:21:36;20.40;;;9.37;;
62419;SDS011;48460;51.616;5.426;2023-03-02T17:29:11;23.08;;;9.55;;
62419;SDS011;48460;51.616;5.426;2023-03-02T17:31:40;17.63;;;9.90;;
62419;SDS011;48460;51.616;5.426;2023-03-02T17:34:15;19.88;;;10.05;;
62419;SDS011;48460;51.616;5.426;2023-03-02T17:36:43;19.02;;;9.63;;
62419;SDS011;48460;51.616;5.426;2023-03-02T17:39:11;18.83;;;9.82;;
62419;SDS011;48460;51.616;5.426;2023-03-02T17:41:46;17.63;;;9.73;;
62419;SDS011;48460;51.616;5.426;2023-03-02T17:44:25;19.75;;;9.63;;
62419;SDS011;48460;51.616;5.426;2023-03-02T17:47:10;18.20;;;10.23;;
62419;SDS011;48460;51.616;5.426;2023-03-02T17:50:04;19.98;;;10.85;;
62419;SDS011;48460;51.616;5.426;2023-03-02T17:52:49;20.23;;;10.13;;
62419;SDS011;48460;51.616;5.426;2023-03-02T17:55:40;18.85;;;10.43;;
62419;SDS011;48460;51.616;5.426;2023-03-02T17:58:08;18.33;;;9.68;;
62419;SDS011;48460;51.616;5.426;2023-03-02T18:00:48;20.25;;;10.23;;
62419;SDS011;48460;51.616;5.426;2023-03-02T18:03:34;19.95;;;10.07;;
62419;SDS011;48460;51.616;5.426;2023-03-02T18:06:05;22.15;;;10.82;;
62419;SDS011;48460;51.616;5.426;2023-03-02T18:09:05;21.20;;;9.98;;
62419;SDS011;48460;51.616;5.426;2023-03-02T18:11:40;20.52;;;9.90;;
62419;SDS011;48460;51.616;5.426;2023-03-02T18:14:17;19.27;;;10.30;;
62419;SDS011;48460;51.616;5.426;2023-03-02T18:16:49;17.65;;;10.65;;
62419;SDS011;48460;51.616;5.426;2023-03-02T18:19:24;19.23;;;10.48;;
62419;SDS011;48460;51.616;5.426;2023-03-02T18:25:35;18.42;;;10.25;;
62419;SDS011;48460;51.616;5.426;2023-03-02T18:28:19;21.80;;;11.52;;
62419;SDS011;48460;51.616;5.426;2023-03-02T18:30:53;22.05;;;10.07;;
62419;SDS011;48460;51.616;5.426;2023-03-02T19:34:34;23.42;;;12.85;;
62419;SDS011;48460;51.616;5.426;2023-03-02T19:37:11;26.35;;;13.80;;
62419;SDS011;48460;51.616;5.426;2023-03-02T19:43:05;27.67;;;13.38;;
62419;SDS011;48460;51.616;5.426;2023-03-02T19:45:40;23.35;;;12.18;;
62419;SDS011;48460;51.616;5.426;2023-03-02T19:48:06;26.50;;;14.20;;
62419;SDS011;48460;51.616;5.426;2023-03-02T19:50:49;26.50;;;13.27;;
62419;SDS011;48460;51.616;5.426;2023-03-02T19:53:20;29.83;;;14.25;;
62419;SDS011;48460;51.616;5.426;2023-03-02T19:56:07;23.50;;;12.00;;
62419;SDS011;48460;51.616;5.426;2023-03-02T19:58:56;29.13;;;14.23;;
62419;SDS011;48460;51.616;5.426;2023-03-02T20:01:41;24.05;;;11.95;;
62419;SDS011;48460;51.616;5.426;2023-03-02T20:10:40;30.35;;;13.38;;
62419;SDS011;48460;51.616;5.426;2023-03-02T20:16:41;29.98;;;14.05;;
62419;SDS011;48460;51.616;5.426;2023-03-02T20:19:09;26.95;;;14.20;;
62419;SDS011;48460;51.616;5.426;2023-03-02T20:21:47;26.23;;;13.50;;
62419;SDS011;48460;51.616;5.426;2023-03-02T20:24:18;27.10;;;13.32;;
62419;SDS011;48460;51.616;5.426;2023-03-02T20:27:00;29.55;;;13.40;;
62419;SDS011;48460;51.616;5.426;2023-03-02T20:41:08;27.70;;;13.40;;
62419;SDS011;48460;51.616;5.426;2023-03-02T20:43:39;28.10;;;13.23;;
62419;SDS011;48460;51.616;5.426;2023-03-02T20:46:12;25.35;;;13.07;;
62419;SDS011;48460;51.616;5.426;2023-03-02T20:49:11;27.08;;;13.35;;
62419;SDS011;48460;51.616;5.426;2023-03-02T20:57:28;30.33;;;13.98;;
62419;SDS011;48460;51.616;5.426;2023-03-02T21:02:46;29.02;;;14.07;;
62419;SDS011;48460;51.616;5.426;2023-03-02T21:05:44;29.30;;;13.98;;
62419;SDS011;48460;51.616;5.426;2023-03-02T21:08:48;28.58;;;13.25;;
62419;SDS011;48460;51.616;5.426;2023-03-02T21:11:29;25.27;;;13.50;;
62419;SDS011;48460;51.616;5.426;2023-03-02T21:14:09;27.35;;;13.07;;
62419;SDS011;48460;51.616;5.426;2023-03-02T21:16:38;28.55;;;12.95;;
62419;SDS011;48460;51.616;5.426;2023-03-02T21:21:58;25.63;;;12.88;;
62419;SDS011;48460;51.616;5.426;2023-03-02T21:24:26;28.90;;;14.40;;
62419;SDS011;48460;51.616;5.426;2023-03-02T21:27:11;26.48;;;13.73;;
62419;SDS011;48460;51.616;5.426;2023-03-02T21:29:41;29.60;;;13.57;;
62419;SDS011;48460;51.616;5.426;2023-03-02T21:32:11;30.15;;;13.65;;
62419;SDS011;48460;51.616;5.426;2023-03-02T21:34:50;26.67;;;13.57;;
62419;SDS011;48460;51.616;5.426;2023-03-02T21:37:20;28.33;;;14.43;;
62419;SDS011;48460;51.616;5.426;2023-03-02T21:39:53;26.55;;;13.90;;
62419;SDS011;48460;51.616;5.426;2023-03-02T21:42:34;28.92;;;13.90;;
62419;SDS011;48460;51.616;5.426;2023-03-02T21:45:11;29.63;;;14.18;;
62419;SDS011;48460;51.616;5.426;2023-03-02T21:47:52;27.85;;;13.95;;
62419;SDS011;48460;51.616;5.426;2023-03-02T21:50:32;27.45;;;13.27;;
62419;SDS011;48460;51.616;5.426;2023-03-02T21:53:05;32.17;;;13.45;;
62419;SDS011;48460;51.616;5.426;2023-03-02T21:55:31;25.98;;;13.70;;
62419;SDS011;48460;51.616;5.426;2023-03-02T21:58:06;27.48;;;13.95;;
62419;SDS011;48460;51.616;5.426;2023-03-02T22:00:36;27.33;;;14.00;;
62419;SDS011;48460;51.616;5.426;2023-03-02T22:03:07;29.20;;;14.50;;
62419;SDS011;48460;51.616;5.426;2023-03-02T22:05:35;27.80;;;13.80;;
62419;SDS011;48460;51.616;5.426;2023-03-02T22:08:03;27.73;;;13.35;;
62419;SDS011;48460;51.616;5.426;2023-03-02T22:10:32;27.63;;;13.50;;
62419;SDS011;48460;51.616;5.426;2023-03-02T22:15:42;35.50;;;13.90;;
62419;SDS011;48460;51.616;5.426;2023-03-02T22:18:17;31.60;;;14.35;;
62419;SDS011;48460;51.616;5.426;2023-03-02T22:20:52;29.25;;;13.75;;
62419;SDS011;48460;51.616;5.426;2023-03-02T22:23:19;30.25;;;14.98;;
62419;SDS011;48460;51.616;5.426;2023-03-02T22:25:51;33.28;;;15.35;;
62419;SDS011;48460;51.616;5.426;2023-03-02T22:28:29;31.02;;;14.65;;
62419;SDS011;48460;51.616;5.426;2023-03-02T22:31:19;30.52;;;14.65;;
62419;SDS011;48460;51.616;5.426;2023-03-02T22:33:48;34.55;;;15.75;;
62419;SDS011;48460;51.616;5.426;2023-03-02T22:36:23;30.48;;;14.77;;
62419;SDS011;48460;51.616;5.426;2023-03-02T22:38:51;30.40;;;14.65;;
62419;SDS011;48460;51.616;5.426;2023-03-02T22:41:36;29.45;;;14.35;;
62419;SDS011;48460;51.616;5.426;2023-03-02T22:44:09;28.95;;;15.23;;
62419;SDS011;48460;51.616;5.426;2023-03-02T22:46:39;29.98;;;14.40;;
62419;SDS011;48460;51.616;5.426;2023-03-02T22:49:16;31.98;;;14.98;;
62419;SDS011;48460;51.616;5.426;2023-03-02T22:51:44;31.45;;;15.25;;
62419;SDS011;48460;51.616;5.426;2023-03-02T22:54:21;31.48;;;15.20;;
62419;SDS011;48460;51.616;5.426;2023-03-02T22:56:51;30.35;;;15.65;;
62419;SDS011;48460;51.616;5.426;2023-03-02T22:59:24;31.75;;;15.10;;
62419;SDS011;48460;51.616;5.426;2023-03-02T23:02:07;33.25;;;15.52;;
62419;SDS011;48460;51.616;5.426;2023-03-02T23:04:41;33.63;;;14.98;;
62419;SDS011;48460;51.616;5.426;2023-03-02T23:07:11;32.50;;;14.20;;
62419;SDS011;48460;51.616;5.426;2023-03-02T23:09:43;35.50;;;14.68;;
62419;SDS011;48460;51.616;5.426;2023-03-02T23:12:25;33.80;;;15.68;;
62419;SDS011;48460;51.616;5.426;2023-03-02T23:14:55;33.92;;;16.17;;
62419;SDS011;48460;51.616;5.426;2023-03-02T23:17:48;32.10;;;14.45;;
62419;SDS011;48460;51.616;5.426;2023-03-02T23:20:14;37.22;;;15.15;;
62419;SDS011;48460;51.616;5.426;2023-03-02T23:22:50;37.30;;;16.20;;
62419;SDS011;48460;51.616;5.426;2023-03-02T23:25:26;33.28;;;14.52;;
62419;SDS011;48460;51.616;5.426;2023-03-02T23:27:59;32.05;;;15.35;;
62419;SDS011;48460;51.616;5.426;2023-03-02T23:30:37;34.60;;;15.60;;
62419;SDS011;48460;51.616;5.426;2023-03-02T23:33:03;33.95;;;16.08;;
62419;SDS011;48460;51.616;5.426;2023-03-02T23:35:33;34.08;;;16.08;;
62419;SDS011;48460;51.616;5.426;2023-03-02T23:37:59;34.45;;;15.57;;
62419;SDS011;48460;51.616;5.426;2023-03-02T23:40:26;36.53;;;16.98;;
62419;SDS011;48460;51.616;5.426;2023-03-02T23:42:57;34.83;;;15.02;;
62419;SDS011;48460;51.616;5.426;2023-03-02T23:45:33;34.15;;;14.98;;
62419;SDS011;48460;51.616;5.426;2023-03-02T23:47:59;36.53;;;16.58;;
62419;SDS011;48460;51.616;5.426;2023-03-02T23:50:30;39.25;;;17.30;;
62419;SDS011;48460;51.616;5.426;2023-03-02T23:53:07;34.47;;;15.57;;
62419;SDS011;48460;51.616;5.426;2023-03-02T23:55:32;35.30;;;16.13;;
62419;SDS011;48460;51.616;5.426;2023-03-02T23:58:10;35.20;;;15.93;;
